Time;durP1;ratioP1;P1;durP2;ratioP2;P2;SDS_P1;SDS_P2;PMS_P1;PMS_P2;Temp;Humidity;BMP_temperature;BMP_pressure;BME280_temperature;BME280_humidity;BME280_pressure;Samples;Min_cycle;Max_cycle;Signal;HPM_P1;HPM_P2
2022/06/21 00:01:18;;;;;;;3.08;1.00;;;12.10;99.90;;;;;;5122631;28;20027;-67
2022/06/21 00:03:45;;;;;;;11.57;1.67;;;12.20;99.90;;;;;;5123641;28;20020;-68
2022/06/21 00:06:13;;;;;;;4.70;1.75;;;12.10;99.90;;;;;;5122816;28;20048;-67
2022/06/21 00:08:39;;;;;;;1.77;0.88;;;12.10;99.90;;;;;;5122425;28;20020;-67
2022/06/21 00:11:30;;;;;;;5.68;1.33;;;12.10;99.90;;;;;;5123339;28;20040;-69
2022/06/21 00:13:56;;;;;;;2.95;1.08;;;12.00;99.90;;;;;;5122628;28;20027;-71
2022/06/21 00:16:25;;;;;;;6.00;1.35;;;12.00;99.90;;;;;;5121653;28;20491;-67
2022/06/21 00:18:51;;;;;;;1.80;1.10;;;12.10;99.90;;;;;;5122995;28;20019;-69
2022/06/21 00:21:20;;;;;;;1.75;0.95;;;12.00;99.90;;;;;;5122927;28;20027;-68
2022/06/21 00:23:47;;;;;;;7.78;1.75;;;12.00;99.90;;;;;;5123012;28;20036;-68
2022/06/21 00:26:14;;;;;;;1.58;0.80;;;12.00;99.90;;;;;;5123134;28;20060;-68
2022/06/21 00:28:41;;;;;;;3.40;1.08;;;12.00;99.90;;;;;;5121137;28;20399;-67
2022/06/21 00:31:17;;;;;;;2.50;1.50;;;12.00;99.90;;;;;;5122599;28;20055;-68
2022/06/21 00:33:44;;;;;;;8.43;1.85;;;12.00;99.90;;;;;;5122936;28;20042;-69
2022/06/21 00:36:34;;;;;;;2.80;1.00;;;12.00;99.90;;;;;;5122550;28;20028;-68
2022/06/21 00:39:02;;;;;;;5.03;1.48;;;12.00;99.90;;;;;;5123057;28;20102;-69
2022/06/21 00:41:56;;;;;;;2.78;1.45;;;12.00;99.90;;;;;;5122916;28;20016;-69
2022/06/21 00:44:36;;;;;;;4.90;1.58;;;12.00;99.90;;;;;;5117072;28;20043;-71
2022/06/21 00:47:16;;;;;;;7.32;1.50;;;12.00;99.90;;;;;;5122774;28;20046;-68
2022/06/21 00:50:02;;;;;;;3.40;1.30;;;12.00;99.90;;;;;;5122705;28;20036;-68
2022/06/21 00:52:42;;;;;;;2.85;1.08;;;11.90;99.90;;;;;;5122874;28;20032;-68
2022/06/21 00:55:22;;;;;;;1.92;1.05;;;11.90;99.90;;;;;;5122664;28;20047;-69
2022/06/21 00:57:54;;;;;;;3.10;1.23;;;11.80;99.90;;;;;;5122240;28;20042;-68
2022/06/21 01:00:38;;;;;;;2.97;1.10;;;11.70;99.90;;;;;;5122273;28;20059;-68
2022/06/21 01:03:18;;;;;;;6.82;1.13;;;11.70;99.90;;;;;;5121968;28;20058;-70
2022/06/21 01:05:45;;;;;;;3.35;1.55;;;11.60;99.90;;;;;;5122463;28;20030;-70
2022/06/21 01:08:15;;;;;;;2.92;1.33;;;11.60;99.90;;;;;;5122891;28;20066;-67
2022/06/21 01:10:44;;;;;;;4.30;1.30;;;11.60;99.90;;;;;;5122072;28;20032;-70
2022/06/21 01:13:14;;;;;;;2.65;1.30;;;11.50;99.90;;;;;;5122077;28;20070;-67
2022/06/21 01:15:44;;;;;;;3.33;1.27;;;11.50;99.90;;;;;;5122305;28;20092;-69
2022/06/21 01:18:12;;;;;;;3.10;1.38;;;11.50;99.90;;;;;;5122005;28;20049;-67
2022/06/21 01:20:43;;;;;;;3.22;1.23;;;11.40;99.90;;;;;;5121797;28;20039;-69
2022/06/21 01:23:15;;;;;;;5.28;1.23;;;11.40;99.90;;;;;;5121908;28;20030;-68
2022/06/21 01:25:41;;;;;;;7.45;1.17;;;11.40;99.90;;;;;;5125065;28;20015;-68
2022/06/21 01:28:08;;;;;;;3.80;1.20;;;11.40;99.90;;;;;;5126666;28;20019;-68
2022/06/21 01:30:35;;;;;;;1.58;0.85;;;11.40;99.90;;;;;;5126013;28;20594;-69
2022/06/21 01:33:02;;;;;;;2.50;1.05;;;11.40;99.90;;;;;;5126044;28;20066;-69
2022/06/21 01:35:36;;;;;;;17.88;1.95;;;11.40;99.90;;;;;;5126347;28;20026;-69
2022/06/21 01:38:05;;;;;;;6.35;1.23;;;11.40;99.90;;;;;;5126311;27;20024;-68
2022/06/21 01:40:39;;;;;;;4.10;1.27;;;11.40;99.90;;;;;;5125954;28;20031;-69
2022/06/21 01:43:09;;;;;;;2.38;0.95;;;11.40;99.90;;;;;;5125900;28;20039;-69
2022/06/21 01:45:40;;;;;;;3.22;1.65;;;11.40;99.90;;;;;;5125817;28;20031;-68
2022/06/21 01:48:20;;;;;;;3.17;1.48;;;11.40;99.90;;;;;;5125863;28;20387;-69
2022/06/21 01:50:49;;;;;;;1.40;1.05;;;11.40;99.90;;;;;;5125804;28;20047;-67
2022/06/21 01:53:18;;;;;;;1.95;1.05;;;11.30;99.90;;;;;;5125225;28;20028;-69
2022/06/21 01:55:52;;;;;;;1.48;1.25;;;11.30;99.90;;;;;;5125560;28;20026;-68
2022/06/21 01:58:23;;;;;;;2.13;1.15;;;11.30;99.90;;;;;;5124289;28;20091;-68
2022/06/21 02:01:17;;;;;;;2.97;1.38;;;11.30;99.90;;;;;;5125328;28;20026;-70
2022/06/21 02:03:48;;;;;;;13.57;1.73;;;11.30;99.90;;;;;;5125264;28;20027;-68
2022/06/21 02:06:15;;;;;;;2.35;0.95;;;11.30;99.90;;;;;;5125678;28;20019;-69
2022/06/21 02:08:56;;;;;;;2.17;1.15;;;11.30;99.90;;;;;;5125489;28;20459;-68
2022/06/21 02:11:33;;;;;;;10.40;2.15;;;11.30;99.90;;;;;;5125961;28;20104;-68
2022/06/21 02:16:51;;;;;;;5.13;1.58;;;11.30;99.90;;;;;;5125116;28;20030;-67
2022/06/21 02:19:44;;;;;;;5.47;1.10;;;11.20;99.90;;;;;;5125231;28;20019;-69
2022/06/21 02:22:14;;;;;;;2.40;0.93;;;11.20;99.90;;;;;;5123871;28;20039;-67
2022/06/21 02:24:40;;;;;;;6.97;1.27;;;11.20;99.90;;;;;;5124824;28;20467;-68
2022/06/21 02:27:06;;;;;;;2.25;1.15;;;11.20;99.90;;;;;;5125390;28;20023;-68
2022/06/21 02:29:33;;;;;;;2.83;1.25;;;11.20;99.90;;;;;;5124204;28;20049;-69
2022/06/21 02:31:59;;;;;;;2.13;1.20;;;11.20;99.90;;;;;;5125227;28;20035;-68
2022/06/21 02:34:37;;;;;;;2.22;1.33;;;11.20;99.90;;;;;;5124547;28;20092;-68
2022/06/21 02:37:05;;;;;;;5.55;0.98;;;11.20;99.90;;;;;;5124134;28;20027;-67
2022/06/21 02:39:33;;;;;;;5.38;1.42;;;11.20;99.90;;;;;;5124860;28;20111;-70
2022/06/21 02:42:22;;;;;;;0.75;0.65;;;11.20;99.90;;;;;;5123400;27;20038;-69
2022/06/21 02:44:54;;;;;;;1.08;0.68;;;11.20;99.90;;;;;;5124381;28;20058;-68
2022/06/21 02:47:42;;;;;;;2.53;1.02;;;11.30;99.90;;;;;;5124547;28;20039;-68
2022/06/21 02:50:48;;;;;;;2.08;1.10;;;11.30;99.90;;;;;;5124547;28;20016;-69
2022/06/21 02:53:22;;;;;;;4.68;1.15;;;11.30;99.90;;;;;;5100911;28;20044;-68
2022/06/21 02:55:55;;;;;;;2.13;1.33;;;11.20;99.90;;;;;;5121464;28;20027;-67
2022/06/21 02:58:29;;;;;;;3.67;1.55;;;11.30;99.90;;;;;;5124586;28;20027;-70
2022/06/21 03:00:55;;;;;;;2.28;1.17;;;11.20;99.90;;;;;;5125094;28;20092;-69
2022/06/21 03:03:25;;;;;;;2.85;1.42;;;11.20;99.90;;;;;;5124048;28;20031;-69
2022/06/21 03:05:56;;;;;;;2.65;1.00;;;11.20;99.90;;;;;;5124470;28;20023;-67
2022/06/21 03:08:22;;;;;;;9.05;1.27;;;11.20;99.90;;;;;;5124173;28;20020;-68
2022/06/21 03:10:49;;;;;;;2.92;1.27;;;11.10;99.90;;;;;;5124188;28;20032;-68
2022/06/21 03:13:18;;;;;;;6.18;1.52;;;11.20;99.90;;;;;;5123969;28;20091;-69
2022/06/21 03:15:49;;;;;;;1.17;0.63;;;11.20;99.90;;;;;;5123957;28;20027;-67
2022/06/21 03:18:20;;;;;;;1.95;1.17;;;11.10;99.90;;;;;;5124081;28;20023;-67
2022/06/21 03:20:47;;;;;;;4.03;1.70;;;11.10;99.90;;;;;;5124340;28;20030;-68
2022/06/21 03:23:13;;;;;;;2.30;1.40;;;11.00;99.90;;;;;;5123624;28;20047;-69
2022/06/21 03:25:48;;;;;;;3.05;1.17;;;11.00;99.90;;;;;;5124129;28;20119;-68
2022/06/21 03:28:26;;;;;;;11.15;1.58;;;11.00;99.90;;;;;;5124024;28;20050;-66
2022/06/21 03:31:05;;;;;;;3.17;1.63;;;10.90;99.90;;;;;;5123127;28;20058;-67
2022/06/21 03:33:34;;;;;;;8.45;2.03;;;11.00;99.90;;;;;;5122834;28;20028;-68
2022/06/21 03:36:04;;;;;;;1.35;1.23;;;10.90;99.90;;;;;;5123794;28;20030;-68
2022/06/21 03:38:30;;;;;;;2.55;1.33;;;10.90;99.90;;;;;;5123657;28;20035;-69
2022/06/21 03:43:51;;;;;;;1.70;0.82;;;10.80;99.90;;;;;;5123635;28;20035;-67
2022/06/21 03:46:35;;;;;;;2.35;1.40;;;10.80;99.90;;;;;;5123128;28;20028;-66
2022/06/21 03:49:22;;;;;;;6.60;1.58;;;10.90;99.90;;;;;;5122931;28;20030;-67
2022/06/21 03:51:48;;;;;;;2.03;0.85;;;10.90;99.90;;;;;;5123519;28;20049;-68
2022/06/21 03:54:24;;;;;;;1.83;1.20;;;10.90;99.90;;;;;;5123483;28;20404;-69
2022/06/21 03:57:08;;;;;;;5.38;1.80;;;10.80;99.90;;;;;;5123410;28;20023;-68
2022/06/21 03:59:40;;;;;;;6.55;1.60;;;10.90;99.90;;;;;;5123205;28;20114;-68
2022/06/21 04:02:11;;;;;;;1.65;1.23;;;10.90;99.90;;;;;;5123489;28;20020;-69
2022/06/21 04:05:04;;;;;;;5.03;1.77;;;10.90;99.90;;;;;;5123209;28;20028;-66
2022/06/21 04:07:41;;;;;;;4.68;1.98;;;10.90;99.90;;;;;;5123489;28;20027;-67
2022/06/21 04:10:26;;;;;;;7.03;1.60;;;10.90;99.90;;;;;;5123346;28;20067;-68
2022/06/21 04:12:54;;;;;;;1.30;1.08;;;10.90;99.90;;;;;;5123022;28;20036;-69
2022/06/21 04:15:44;;;;;;;2.28;1.10;;;10.90;99.90;;;;;;5123041;28;20531;-68
2022/06/21 04:18:25;;;;;;;3.30;1.73;;;10.90;99.90;;;;;;5122758;28;20020;-67
2022/06/21 04:21:00;;;;;;;5.40;1.77;;;11.00;99.90;;;;;;5123086;28;20032;-69
2022/06/21 04:23:29;;;;;;;;;;;11.00;99.90;;;;;;5123872;28;20427;-68
2022/06/21 04:26:05;;;;;;;9.70;1.60;;;11.10;99.90;;;;;;5123053;28;19911;-68
2022/06/21 04:28:43;;;;;;;5.35;1.73;;;11.10;99.90;;;;;;5122560;28;20424;-69
2022/06/21 04:31:18;;;;;;;2.55;1.40;;;11.20;99.90;;;;;;5122856;28;20087;-67
2022/06/21 04:33:49;;;;;;;1.65;0.85;;;11.20;99.90;;;;;;5122911;28;20091;-68
2022/06/21 04:36:27;;;;;;;2.38;1.45;;;11.30;99.90;;;;;;5122822;28;20027;-67
2022/06/21 04:38:59;;;;;;;2.10;1.23;;;11.30;99.90;;;;;;5122936;28;20028;-67
2022/06/21 04:41:49;;;;;;;3.15;1.38;;;11.40;99.90;;;;;;5122513;28;20042;-67
2022/06/21 04:44:36;;;;;;;3.50;1.20;;;11.40;99.90;;;;;;5122733;28;20028;-67
2022/06/21 04:47:09;;;;;;;7.68;1.30;;;11.50;99.90;;;;;;5119681;28;20118;-69
2022/06/21 04:49:41;;;;;;;2.13;1.20;;;11.50;99.90;;;;;;5121439;28;20028;-69
2022/06/21 04:52:35;;;;;;;2.45;1.42;;;11.50;99.90;;;;;;5122119;28;20063;-68
2022/06/21 04:55:03;;;;;;;3.10;1.10;;;11.60;99.90;;;;;;5121069;28;20030;-69
2022/06/21 04:57:31;;;;;;;4.20;1.02;;;11.70;99.90;;;;;;5110748;28;20097;-67
2022/06/21 05:00:05;;;;;;;1.20;1.10;;;11.70;99.90;;;;;;5111663;28;20125;-69
2022/06/21 05:02:52;;;;;;;1.17;0.75;;;11.70;99.90;;;;;;5122972;28;20020;-70
2022/06/21 05:05:26;;;;;;;1.98;1.25;;;11.80;99.90;;;;;;5123532;28;20028;-67
2022/06/21 05:08:06;;;;;;;2.40;1.30;;;11.80;99.90;;;;;;5125034;28;20023;-66
2022/06/21 05:10:37;;;;;;;1.67;1.02;;;11.90;99.90;;;;;;5124408;28;20482;-67
2022/06/21 05:13:20;;;;;;;2.53;1.17;;;11.90;99.90;;;;;;5126657;28;20064;-70
2022/06/21 05:15:46;;;;;;;1.67;1.30;;;11.90;99.90;;;;;;5124108;28;20057;-67
2022/06/21 05:18:24;;;;;;;8.48;1.65;;;12.00;99.90;;;;;;5126044;28;20053;-68
2022/06/21 05:21:02;;;;;;;1.20;0.95;;;12.00;99.90;;;;;;5125499;28;20032;-69
2022/06/21 05:23:30;;;;;;;9.23;1.83;;;12.10;99.90;;;;;;5126158;28;20360;-69
2022/06/21 05:26:01;;;;;;;3.83;1.38;;;12.20;99.90;;;;;;5126009;28;20020;-69
2022/06/21 05:28:42;;;;;;;5.45;1.23;;;12.20;99.90;;;;;;5126508;28;20039;-69
2022/06/21 05:31:20;;;;;;;1.27;1.00;;;12.30;99.90;;;;;;5123235;28;20088;-68
2022/06/21 05:33:52;;;;;;;9.40;1.58;;;12.30;99.90;;;;;;5126056;28;20023;-68
2022/06/21 05:36:22;;;;;;;4.05;1.40;;;12.50;99.90;;;;;;5125873;28;20023;-67
2022/06/21 05:38:55;;;;;;;4.68;0.93;;;12.60;99.90;;;;;;5123778;28;20023;-68
2022/06/21 05:41:31;;;;;;;2.45;0.90;;;12.60;99.90;;;;;;5122996;28;20080;-69
2022/06/21 05:44:14;;;;;;;3.03;1.35;;;12.70;99.90;;;;;;5122986;28;20027;-68
2022/06/21 05:46:46;;;;;;;1.95;0.95;;;12.80;99.90;;;;;;5120830;28;20066;-68
2022/06/21 05:49:25;;;;;;;3.65;1.30;;;12.90;99.90;;;;;;5122061;28;20035;-67
2022/06/21 05:51:54;;;;;;;2.35;1.02;;;12.90;99.90;;;;;;5123972;28;20064;-68
2022/06/21 05:54:26;;;;;;;1.17;0.88;;;13.00;99.90;;;;;;5124515;28;20028;-69
2022/06/21 05:56:52;;;;;;;1.00;0.70;;;13.00;99.90;;;;;;5122921;28;20076;-69
2022/06/21 05:59:20;;;;;;;1.30;0.95;;;13.10;99.90;;;;;;5125684;28;20471;-68
2022/06/21 06:01:49;;;;;;;4.95;1.20;;;13.20;99.90;;;;;;5125445;28;20015;-67
2022/06/21 06:04:40;;;;;;;1.95;1.20;;;13.30;99.90;;;;;;5124246;28;20548;-67
2022/06/21 06:07:08;;;;;;;4.05;1.42;;;13.50;99.90;;;;;;5122589;28;20040;-69
2022/06/21 06:09:41;;;;;;;1.83;1.10;;;13.60;99.90;;;;;;5122836;28;20023;-68
2022/06/21 06:12:21;;;;;;;9.88;1.60;;;13.60;99.90;;;;;;5121693;28;20050;-67
2022/06/21 06:14:52;;;;;;;4.05;1.13;;;13.70;99.90;;;;;;5119550;28;20119;-67
2022/06/21 06:17:47;;;;;;;1.55;0.95;;;13.70;99.90;;;;;;5123840;28;20028;-67
2022/06/21 06:20:32;;;;;;;3.30;1.60;;;13.80;99.90;;;;;;5124926;28;20051;-68
2022/06/21 06:23:16;;;;;;;1.92;1.13;;;13.90;99.90;;;;;;5125361;28;20024;-69
2022/06/21 06:26:15;;;;;;;6.50;1.07;;;14.00;99.90;;;;;;5124231;28;20032;-68
2022/06/21 06:28:49;;;;;;;4.47;1.27;;;14.10;99.90;;;;;;5124711;28;20042;-67
2022/06/21 06:31:41;;;;;;;1.33;1.02;;;14.20;99.90;;;;;;5125053;28;20044;-69
2022/06/21 06:34:11;;;;;;;1.40;1.10;;;14.20;99.90;;;;;;5124975;28;20058;-70
2022/06/21 06:36:49;;;;;;;1.60;0.80;;;14.30;99.90;;;;;;5124561;28;20069;-69
2022/06/21 06:39:23;;;;;;;6.15;1.23;;;14.30;99.90;;;;;;5124853;28;20023;-67
2022/06/21 06:41:59;;;;;;;2.00;0.95;;;14.30;99.90;;;;;;5121659;28;20027;-68
2022/06/21 06:44:28;;;;;;;2.03;0.75;;;14.40;99.90;;;;;;5122167;28;20036;-68
2022/06/21 06:46:58;;;;;;;1.85;0.90;;;14.50;99.90;;;;;;5122751;28;20033;-69
2022/06/21 06:49:35;;;;;;;1.42;0.90;;;14.60;99.90;;;;;;5119009;28;20066;-66
2022/06/21 06:52:13;;;;;;;4.68;1.38;;;14.70;99.90;;;;;;5122420;28;20067;-70
2022/06/21 06:54:44;;;;;;;1.52;0.93;;;14.70;99.90;;;;;;5121186;28;20091;-69
2022/06/21 06:57:20;;;;;;;1.35;0.95;;;14.70;99.90;;;;;;5122862;28;20032;-68
2022/06/21 06:59:48;;;;;;;4.70;1.27;;;14.80;99.90;;;;;;5122952;28;20652;-70
2022/06/21 07:02:22;;;;;;;1.27;1.02;;;14.90;99.90;;;;;;5122520;28;20034;-68
2022/06/21 07:04:58;;;;;;;0.68;0.68;;;14.90;99.90;;;;;;5124441;28;20111;-68
2022/06/21 07:07:34;;;;;;;3.67;0.98;;;15.00;99.90;;;;;;5124789;28;20036;-68
2022/06/21 07:10:05;;;;;;;2.92;0.90;;;15.00;99.90;;;;;;5121584;28;20038;-69
2022/06/21 07:12:33;;;;;;;3.35;1.55;;;15.10;99.90;;;;;;5122861;28;20060;-68
2022/06/21 07:14:59;;;;;;;2.17;1.05;;;15.10;99.90;;;;;;5123202;28;20490;-67
2022/06/21 07:17:42;;;;;;;5.45;1.23;;;15.20;99.90;;;;;;5124190;28;20027;-67
2022/06/21 07:20:22;;;;;;;1.88;0.95;;;15.30;99.90;;;;;;5121366;28;20029;-69
2022/06/21 07:22:48;;;;;;;4.65;1.48;;;15.40;99.90;;;;;;5124064;28;20038;-69
2022/06/21 07:25:25;;;;;;;2.20;0.90;;;15.50;99.90;;;;;;5122311;28;20103;-68
2022/06/21 07:28:02;;;;;;;10.57;1.10;;;15.50;99.90;;;;;;5123918;28;20023;-67
2022/06/21 07:30:39;;;;;;;0.60;0.50;;;15.50;99.90;;;;;;5123522;28;20047;-68
2022/06/21 07:33:18;;;;;;;0.75;0.60;;;15.60;99.90;;;;;;5123842;28;20107;-69
2022/06/21 07:35:49;;;;;;;1.10;0.77;;;15.80;99.90;;;;;;5124106;28;20028;-68
2022/06/21 07:38:23;;;;;;;7.25;1.20;;;16.00;99.90;;;;;;5123112;28;20494;-68
2022/06/21 07:41:14;;;;;;;2.03;0.95;;;16.10;99.90;;;;;;5122992;28;20060;-69
2022/06/21 07:43:50;;;;;;;2.67;0.82;;;16.10;99.90;;;;;;5122424;28;20031;-68
2022/06/21 07:46:27;;;;;;;1.70;0.77;;;16.10;99.90;;;;;;5120220;28;20023;-66
2022/06/21 07:49:15;;;;;;;3.88;1.58;;;16.00;99.90;;;;;;5117763;28;20074;-68
2022/06/21 07:51:45;;;;;;;0.98;0.65;;;15.90;99.90;;;;;;5121126;28;20043;-69
2022/06/21 07:54:19;;;;;;;1.23;0.90;;;15.80;99.90;;;;;;5122361;28;20024;-66
2022/06/21 07:56:52;;;;;;;1.38;0.63;;;15.90;99.90;;;;;;5121142;28;20024;-66
2022/06/21 07:59:26;;;;;;;0.90;0.47;;;16.10;99.90;;;;;;5122737;28;20024;-66
2022/06/21 08:08:29;;;;;;;0.85;0.75;;;16.60;99.90;;;;;;5068563;28;20082;-66
2022/06/21 08:10:59;;;;;;;1.00;0.73;;;16.60;99.90;;;;;;5070490;28;20094;-68
2022/06/21 08:13:24;;;;;;;2.63;0.70;;;16.60;99.90;;;;;;5102238;28;20059;-67
2022/06/21 08:16:05;;;;;;;2.08;0.90;;;16.50;99.90;;;;;;5121056;28;20027;-68
2022/06/21 08:19:06;;;;;;;0.80;0.68;;;16.50;99.90;;;;;;5120579;28;20035;-67
2022/06/21 08:21:40;;;;;;;0.63;0.55;;;16.50;99.90;;;;;;5120876;27;20126;-70
2022/06/21 08:24:18;;;;;;;1.38;1.00;;;16.50;99.90;;;;;;5120984;28;20407;-67
2022/06/21 08:27:13;;;;;;;1.75;0.88;;;16.60;99.90;;;;;;5122357;28;20905;-67
2022/06/21 08:29:57;;;;;;;7.03;1.20;;;16.80;99.90;;;;;;5113130;28;20551;-65
2022/06/21 08:32:44;;;;;;;1.65;0.60;;;16.90;99.90;;;;;;5118693;28;20505;-66
2022/06/21 08:35:20;;;;;;;0.73;0.55;;;17.00;99.90;;;;;;5122004;28;20031;-65
2022/06/21 08:38:17;;;;;;;0.98;0.63;;;17.10;99.90;;;;;;5122676;28;20527;-68
2022/06/21 08:41:09;;;;;;;4.93;0.73;;;17.20;99.90;;;;;;5122900;28;20067;-67
2022/06/21 08:44:24;;;;;;;1.00;0.82;;;17.40;99.90;;;;;;5120724;28;20455;-67
2022/06/21 08:46:50;;;;;;;1.25;0.90;;;17.50;99.90;;;;;;5098223;28;20044;-66
2022/06/21 08:49:36;;;;;;;1.60;0.75;;;17.70;99.90;;;;;;5118740;28;20034;-67
2022/06/21 08:52:22;;;;;;;6.22;0.95;;;17.80;99.90;;;;;;5120989;28;20031;-67
2022/06/21 08:55:04;;;;;;;1.13;0.75;;;17.80;99.90;;;;;;5120627;28;20030;-68
2022/06/21 08:57:39;;;;;;;1.73;0.82;;;17.80;99.90;;;;;;5120894;28;20047;-67
2022/06/21 09:00:13;;;;;;;0.65;0.30;;;17.90;99.90;;;;;;5120061;28;20031;-69
2022/06/21 09:03:03;;;;;;;3.38;0.70;;;17.90;99.90;;;;;;5118495;28;20034;-69
2022/06/21 09:05:51;;;;;;;1.27;0.88;;;17.90;99.90;;;;;;5117950;28;20024;-68
2022/06/21 09:08:41;;;;;;;1.55;0.40;;;18.00;99.90;;;;;;5120971;28;20166;-66
2022/06/21 09:11:30;;;;;;;2.30;1.02;;;18.10;99.90;;;;;;5118466;28;20422;-66
2022/06/21 09:14:06;;;;;;;0.50;0.50;;;18.30;99.90;;;;;;5116921;28;21101;-67
2022/06/21 09:16:51;;;;;;;0.82;0.38;;;18.40;99.90;;;;;;5117163;28;20114;-70
2022/06/21 09:19:23;;;;;;;1.05;0.80;;;18.50;99.90;;;;;;5119855;28;20102;-67
2022/06/21 09:22:07;;;;;;;3.08;0.77;;;18.50;99.90;;;;;;5120954;28;20426;-66
2022/06/21 09:25:10;;;;;;;0.50;0.40;;;18.60;99.90;;;;;;5120839;28;20015;-67
2022/06/21 09:28:15;;;;;;;1.77;0.70;;;18.70;99.90;;;;;;5121679;28;20023;-67
2022/06/21 09:30:48;;;;;;;1.52;0.70;;;18.80;99.90;;;;;;5119930;28;20075;-68
2022/06/21 09:33:45;;;;;;;2.83;1.35;;;18.80;99.90;;;;;;5120572;28;20044;-67
2022/06/21 09:36:27;;;;;;;1.25;0.93;;;18.90;99.90;;;;;;5121060;28;20119;-65
2022/06/21 09:39:21;;;;;;;1.48;1.00;;;19.00;99.90;;;;;;5120519;28;20036;-68
2022/06/21 09:42:20;;;;;;;1.77;0.90;;;19.20;99.90;;;;;;5121087;28;20034;-67
2022/06/21 09:45:17;;;;;;;2.00;1.08;;;19.20;99.90;;;;;;5120074;28;20039;-66
2022/06/21 09:47:48;;;;;;;3.53;1.50;;;19.20;99.90;;;;;;5124067;28;20019;-66
2022/06/21 09:50:26;;;;;;;2.15;0.80;;;19.20;99.90;;;;;;5122513;28;20098;-69
2022/06/21 09:53:10;;;;;;;4.10;0.90;;;19.10;99.90;;;;;;5125051;28;20103;-68
2022/06/21 09:56:04;;;;;;;4.03;1.10;;;19.10;99.90;;;;;;5123846;28;20019;-68
2022/06/21 09:58:44;;;;;;;1.00;0.80;;;19.10;99.90;;;;;;5123968;28;20027;-67
2022/06/21 10:01:17;;;;;;;2.85;1.30;;;19.00;99.90;;;;;;5122142;28;20035;-67
2022/06/21 10:04:21;;;;;;;1.88;1.02;;;19.10;99.90;;;;;;5124414;28;20015;-66
2022/06/21 10:06:59;;;;;;;2.05;1.20;;;19.20;99.90;;;;;;5123305;28;20028;-68
2022/06/21 10:09:45;;;;;;;1.98;1.00;;;19.40;99.90;;;;;;5123265;28;20031;-68
2022/06/21 10:12:29;;;;;;;1.23;0.75;;;19.50;99.90;;;;;;5124234;27;20150;-68
2022/06/21 10:15:48;;;;;;;2.65;0.90;;;19.50;99.90;;;;;;5124126;28;20032;-69
2022/06/21 10:18:41;;;;;;;3.22;0.88;;;19.50;99.90;;;;;;5114626;28;20402;-69
2022/06/21 10:21:26;;;;;;;1.60;1.00;;;19.50;99.90;;;;;;5124468;28;20031;-68
2022/06/21 10:23:58;;;;;;;;;;;19.60;99.90;;;;;;5123515;28;20730;-67
2022/06/21 10:27:01;;;;;;;3.58;1.55;;;19.60;99.90;;;;;;5122882;28;21353;-68
2022/06/21 10:30:12;;;;;;;1.08;0.95;;;19.80;99.90;;;;;;5124384;27;20027;-71
2022/06/21 10:32:50;;;;;;;1.25;0.70;;;19.90;99.90;;;;;;5111242;28;20082;-68
2022/06/21 10:35:36;;;;;;;0.90;0.70;;;20.00;99.90;;;;;;5122937;28;20106;-68
2022/06/21 10:38:12;;;;;;;1.90;1.23;;;20.10;99.90;;;;;;5122328;28;20035;-69
2022/06/21 10:41:06;;;;;;;3.78;1.40;;;20.20;99.90;;;;;;5122667;28;20799;-69
2022/06/21 10:43:50;;;;;;;1.20;0.90;;;20.20;99.90;;;;;;5112481;28;20545;-67
2022/06/21 10:46:38;;;;;;;4.80;0.68;;;20.30;99.90;;;;;;5123479;28;20035;-67
2022/06/21 10:49:31;;;;;;;1.27;1.10;;;20.40;99.90;;;;;;5119689;27;20373;-70
2022/06/21 10:52:26;;;;;;;7.63;1.30;;;20.60;99.90;;;;;;5123717;28;20047;-69
2022/06/21 10:55:15;;;;;;;2.00;0.77;;;20.70;99.90;;;;;;5123456;28;20084;-68
2022/06/21 10:57:56;;;;;;;0.90;0.65;;;20.80;99.90;;;;;;5123235;28;20027;-67
2022/06/21 11:03:55;;;;;;;2.72;0.63;;;21.00;99.90;;;;;;5120227;28;20108;-71
2022/06/21 11:06:44;;;;;;;1.48;1.00;;;21.00;99.90;;;;;;5123180;28;20087;-72
2022/06/21 11:09:14;;;;;;;1.02;0.80;;;21.00;99.90;;;;;;5122151;28;20084;-69
2022/06/21 11:15:25;;;;;;;1.13;0.63;;;21.20;99.90;;;;;;5118521;28;20066;-69
2022/06/21 11:18:23;;;;;;;3.78;1.05;;;21.30;99.90;;;;;;5121557;28;20399;-69
2022/06/21 11:21:16;;;;;;;1.58;0.90;;;21.40;99.90;;;;;;5120865;28;20047;-70
2022/06/21 11:24:06;;;;;;;1.38;0.88;;;21.60;99.90;;;;;;5123062;28;20045;-69
2022/06/21 11:26:53;;;;;;;2.15;0.93;;;21.80;99.90;;;;;;5122770;28;20026;-71
2022/06/21 11:29:43;;;;;;;2.90;1.10;;;22.00;99.90;;;;;;5122428;28;20042;-69
2022/06/21 11:32:28;;;;;;;1.02;0.80;;;22.10;99.90;;;;;;5122028;28;20393;-68
2022/06/21 11:35:09;;;;;;;2.28;1.38;;;22.10;99.90;;;;;;5122545;28;20499;-70
2022/06/21 11:38:02;;;;;;;2.75;0.95;;;22.20;99.90;;;;;;5122904;28;20057;-69
2022/06/21 11:40:46;;;;;;;1.80;0.77;;;22.40;99.90;;;;;;5122876;28;20027;-70
2022/06/21 11:43:52;;;;;;;5.70;0.90;;;22.50;99.90;;;;;;5122510;28;20448;-70
2022/06/21 11:46:30;;;;;;;1.48;0.80;;;22.70;99.90;;;;;;5121437;28;20123;-69
2022/06/21 11:49:12;;;;;;;2.70;1.15;;;22.80;99.90;;;;;;5123003;28;20073;-69
2022/06/21 11:52:21;;;;;;;1.80;1.05;;;22.90;99.90;;;;;;5122089;28;20035;-67
2022/06/21 11:54:53;;;;;;;0.82;0.47;;;23.00;99.90;;;;;;5122978;28;20027;-69
2022/06/21 11:57:33;;;;;;;1.98;0.98;;;23.00;99.90;;;;;;5122298;28;20028;-69
2022/06/21 12:00:24;;;;;;;1.25;0.82;;;23.00;99.90;;;;;;5122126;28;20035;-68
2022/06/21 12:03:05;;;;;;;3.55;0.85;;;23.00;99.90;;;;;;5120067;28;20023;-70
2022/06/21 12:05:46;;;;;;;1.52;0.82;;;23.10;99.90;;;;;;5122202;28;20023;-69
2022/06/21 12:08:24;;;;;;;2.13;1.17;;;23.20;99.90;;;;;;5120847;28;20054;-68
2022/06/21 12:10:59;;;;;;;2.17;0.85;;;23.30;99.90;;;;;;5121230;28;20020;-69
2022/06/21 12:13:48;;;;;;;1.15;0.80;;;23.50;99.90;;;;;;5122726;28;20044;-68
2022/06/21 12:16:27;;;;;;;1.00;0.50;;;23.80;99.90;;;;;;5122297;28;20079;-71
2022/06/21 12:19:12;;;;;;;4.78;1.00;;;24.00;99.90;;;;;;5122195;28;20028;-70
2022/06/21 12:21:40;;;;;;;;;;;24.20;99.90;;;;;;5121489;28;20039;-70
2022/06/21 12:24:17;;;;;;;2.28;1.55;;;24.10;99.90;;;;;;5121900;28;19903;-70
2022/06/21 12:26:43;;;;;;;1.02;0.75;;;24.20;99.90;;;;;;5121979;28;20023;-70
2022/06/21 12:29:16;;;;;;;7.63;0.93;;;24.30;99.90;;;;;;5122213;28;20100;-68
2022/06/21 12:31:56;;;;;;;4.32;0.73;;;24.30;99.90;;;;;;5119150;28;20102;-72
2022/06/21 12:34:41;;;;;;;3.35;0.77;;;24.40;99.90;;;;;;5121939;28;20024;-70
2022/06/21 12:37:20;;;;;;;1.45;0.82;;;24.50;99.90;;;;;;5118164;28;20047;-70
2022/06/21 12:39:49;;;;;;;0.77;0.65;;;24.70;99.90;;;;;;5121247;28;20019;-69
2022/06/21 12:43:09;;;;;;;2.50;0.68;;;25.00;99.90;;;;;;5121482;28;20047;-69
2022/06/21 12:45:40;;;;;;;2.63;0.57;;;25.10;99.90;;;;;;5077845;28;20032;-71
2022/06/21 12:48:14;;;;;;;3.20;0.73;;;25.30;99.90;;;;;;5113709;28;20076;-69
2022/06/21 12:50:55;;;;;;;1.75;0.88;;;25.40;99.90;;;;;;5122067;28;20038;-69
2022/06/21 12:53:49;;;;;;;1.67;0.82;;;25.50;99.90;;;;;;5121648;28;20040;-69
2022/06/21 12:56:40;;;;;;;2.72;0.63;;;25.60;99.90;;;;;;5119751;28;20043;-70
2022/06/21 12:59:41;;;;;;;0.80;0.60;;;25.70;99.90;;;;;;5121307;28;20023;-71
2022/06/21 13:02:42;;;;;;;0.43;0.40;;;25.70;99.90;;;;;;5119570;28;20095;-68
2022/06/21 13:05:28;;;;;;;1.70;0.90;;;25.70;99.90;;;;;;5120291;28;20076;-67
2022/06/21 13:08:31;;;;;;;0.45;0.40;;;25.90;99.90;;;;;;5120495;28;20055;-68
2022/06/21 13:11:20;;;;;;;1.15;0.75;;;26.10;99.90;;;;;;5121827;28;20020;-69
2022/06/21 13:13:51;;;;;;;1.17;0.73;;;26.30;99.90;;;;;;5121424;28;20140;-70
2022/06/21 13:17:04;;;;;;;2.70;0.93;;;26.40;99.90;;;;;;5121172;28;20031;-69
2022/06/21 13:19:35;;;;;;;0.40;0.40;;;26.40;99.90;;;;;;5078388;28;20089;-70
2022/06/21 13:22:38;;;;;;;0.80;0.77;;;26.60;99.90;;;;;;5120795;28;20096;-66
2022/06/21 13:25:41;;;;;;;5.40;0.73;;;26.70;99.90;;;;;;5125265;28;20028;-69
2022/06/21 13:28:07;;;;;;;0.93;0.63;;;27.00;99.90;;;;;;5124068;28;20024;-70
2022/06/21 13:30:58;;;;;;;1.33;0.65;;;27.20;99.90;;;;;;5124955;28;20036;-70
2022/06/21 13:33:36;;;;;;;2.45;0.80;;;27.30;99.90;;;;;;5124852;28;20105;-68
2022/06/21 13:36:10;;;;;;;0.70;0.60;;;27.60;99.90;;;;;;5125297;28;20034;-67
2022/06/21 13:38:48;;;;;;;2.08;0.70;;;27.80;99.90;;;;;;5125227;28;20024;-70
2022/06/21 13:42:37;;;;;;;3.33;1.00;;;27.80;99.90;;;;;;5125241;28;20097;-70
2022/06/21 13:44:17;;;;;;;1.00;0.65;;;27.70;99.90;;;;;;5125189;28;20039;-70
2022/06/21 13:46:50;;;;;;;0.85;0.65;;;27.60;99.90;;;;;;5125058;28;20019;-71
2022/06/21 13:49:23;;;;;;;2.93;1.00;;;27.40;99.90;;;;;;5125038;28;20059;-69
2022/06/21 13:51:56;;;;;;;1.83;0.75;;;27.50;99.90;;;;;;5125275;28;20039;-68
2022/06/21 13:54:37;;;;;;;1.20;0.85;;;27.70;99.90;;;;;;5125367;28;20040;-68
2022/06/21 13:57:09;;;;;;;0.98;0.60;;;27.90;99.90;;;;;;5123673;28;20034;-68
2022/06/21 13:59:39;;;;;;;3.15;0.77;;;28.20;99.90;;;;;;5120059;28;20686;-69
2022/06/21 14:02:24;;;;;;;1.20;0.52;;;28.50;99.90;;;;;;5123868;28;20020;-69
2022/06/21 14:04:59;;;;;;;1.10;0.70;;;28.80;99.90;;;;;;5123773;28;20403;-69
2022/06/21 14:07:44;;;;;;;1.10;0.60;;;29.10;99.90;;;;;;5124796;28;20044;-68